createdAt,value
2023-03-26T00:00:33.232Z,67.36
2023-03-26T00:03:02.502Z,67.39
2023-03-26T00:05:33.611Z,67.43
2023-03-26T00:08:03.277Z,67.45
2023-03-26T00:10:32.631Z,67.54
2023-03-26T00:13:01.759Z,67.63
2023-03-26T00:15:31.433Z,67.90
2023-03-26T00:18:02.948Z,67.61
2023-03-26T00:20:34.654Z,68.16
2023-03-26T00:23:04.182Z,67.97
2023-03-26T00:25:34.711Z,67.88
2023-03-26T00:28:04.332Z,67.48
2023-03-26T00:30:36.143Z,67.92
2023-03-26T00:33:05.457Z,67.78
2023-03-26T00:35:38.196Z,67.86
2023-03-26T00:38:07.667Z,67.89
2023-03-26T00:40:37.195Z,67.82
2023-03-26T00:43:19.755Z,67.62
2023-03-26T00:45:50.128Z,67.44
2023-03-26T00:48:20.875Z,67.75
2023-03-26T00:50:53.060Z,67.58
2023-03-26T00:53:22.580Z,67.65
2023-03-26T00:55:52.180Z,67.26
2023-03-26T00:58:22.739Z,67.28
2023-03-26T01:00:57.829Z,67.31
2023-03-26T01:03:29.652Z,67.16
2023-03-26T01:06:05.102Z,67.61
2023-03-26T01:08:37.262Z,67.42
2023-03-26T01:11:14.505Z,67.17
2023-03-26T01:13:48.368Z,67.28
2023-03-26T01:16:23.776Z,67.12
2023-03-26T01:18:53.260Z,66.97
2023-03-26T01:21:29.057Z,67.03
2023-03-26T01:24:03.655Z,67.04
2023-03-26T01:26:53.207Z,66.99
2023-03-26T01:29:27.173Z,66.92
2023-03-26T01:32:07.074Z,67.11
2023-03-26T01:34:47.463Z,66.79
2023-03-26T01:37:22.830Z,67.01
2023-03-26T01:39:58.750Z,66.57
2023-03-26T01:42:36.563Z,66.59
2023-03-26T01:45:11.954Z,66.70
2023-03-26T01:47:43.889Z,66.54
2023-03-26T01:50:13.370Z,66.75
2023-03-26T01:52:42.823Z,66.37
2023-03-26T01:55:14.827Z,66.55
2023-03-26T01:57:54.491Z,66.45
2023-03-26T02:00:31.190Z,66.33
2023-03-26T02:03:23.896Z,65.96
2023-03-26T02:05:59.685Z,66.04
2023-03-26T02:08:37.114Z,66.05
2023-03-26T02:11:13.317Z,66.04
2023-03-26T02:13:44.495Z,65.83
2023-03-26T02:16:16.836Z,65.98
2023-03-26T02:18:46.576Z,66.16
2023-03-26T02:21:20.643Z,65.75
2023-03-26T02:23:58.193Z,66.18
2023-03-26T02:26:28.841Z,65.94
2023-03-26T02:28:58.808Z,66.10
2023-03-26T02:31:28.161Z,65.99
2023-03-26T02:33:57.695Z,65.93
2023-03-26T02:36:28.420Z,65.41
2023-03-26T02:38:58.755Z,65.25
2023-03-26T02:41:29.686Z,65.21
2023-03-26T02:43:58.954Z,65.19
2023-03-26T02:46:28.266Z,64.93
2023-03-26T02:48:57.514Z,65.17
2023-03-26T02:51:27.769Z,64.97
2023-03-26T02:53:56.873Z,64.99
2023-03-26T02:56:26.126Z,64.81
2023-03-26T02:58:56.806Z,65.11
2023-03-26T03:01:26.215Z,64.87
2023-03-26T03:03:55.539Z,64.77
2023-03-26T03:06:26.879Z,64.86
2023-03-26T03:08:56.120Z,64.58
2023-03-26T03:11:25.344Z,64.33
2023-03-26T03:13:56.394Z,64.82
2023-03-26T03:16:26.209Z,64.42
2023-03-26T03:18:58.094Z,64.63
2023-03-26T03:21:28.912Z,64.88
2023-03-26T03:24:00.627Z,65.04
2023-03-26T03:26:31.045Z,64.95
2023-03-26T03:29:02.066Z,64.76
2023-03-26T03:31:31.321Z,64.43
2023-03-26T03:34:00.474Z,64.04
2023-03-26T03:36:30.827Z,63.86
2023-03-26T03:39:03.044Z,63.83
2023-03-26T03:41:32.569Z,63.79
2023-03-26T03:44:03.325Z,63.69
2023-03-26T03:46:32.614Z,63.71
2023-03-26T03:49:02.885Z,63.81
2023-03-26T03:51:32.088Z,63.72
2023-03-26T03:54:01.327Z,63.46
2023-03-26T03:56:30.765Z,63.17
2023-03-26T03:59:00.154Z,62.71
2023-03-26T04:01:31.236Z,62.57
2023-03-26T04:04:01.085Z,62.03
2023-03-26T04:06:30.764Z,62.45
2023-03-26T04:09:00.022Z,62.85
2023-03-26T04:11:29.379Z,62.85
2023-03-26T04:13:58.598Z,62.82
2023-03-26T04:16:27.922Z,62.69
2023-03-26T04:18:58.995Z,62.93
2023-03-26T04:21:30.879Z,62.82
2023-03-26T04:24:02.183Z,62.82
2023-03-26T04:26:31.882Z,62.35
2023-03-26T04:29:03.870Z,62.17
2023-03-26T04:31:34.642Z,62.15
2023-03-26T04:34:14.690Z,61.98
2023-03-26T04:36:46.779Z,61.36
2023-03-26T04:39:16.113Z,61.16
2023-03-26T04:41:46.464Z,61.00
2023-03-26T04:44:17.695Z,60.89
2023-03-26T04:46:47.848Z,61.19
2023-03-26T04:49:18.554Z,60.52
2023-03-26T04:51:49.226Z,60.66
2023-03-26T04:54:20.631Z,60.61
2023-03-26T04:56:54.927Z,60.44
2023-03-26T04:59:30.774Z,60.24
2023-03-26T05:02:00.639Z,60.54
2023-03-26T05:04:31.679Z,60.42
2023-03-26T05:07:01.345Z,60.36
2023-03-26T05:09:31.155Z,60.43
2023-03-26T05:12:00.528Z,60.34
2023-03-26T05:14:29.825Z,60.02
2023-03-26T05:17:01.135Z,60.00
2023-03-26T05:19:31.998Z,60.05
2023-03-26T05:22:01.388Z,60.01
2023-03-26T05:24:30.948Z,59.92
2023-03-26T05:27:00.298Z,59.85
2023-03-26T05:29:29.611Z,59.85
2023-03-26T05:31:58.887Z,59.44
2023-03-26T05:34:28.146Z,59.49
2023-03-26T05:36:58.946Z,59.29
2023-03-26T05:39:30.467Z,59.49
2023-03-26T05:41:59.732Z,59.12
2023-03-26T05:44:29.149Z,58.88
